TimeCDT,TemperatureF,Dew PointF,Humidity,Sea Level PressureIn,VisibilityMPH,Wind Direction,Wind SpeedMPH,Gust SpeedMPH,PrecipitationIn,Events,Conditions,WindDirDegrees,DateUTC
12:09 AM,53.6,53.6,100,30.04,10.0,Calm,Calm,-,N/A,,Clear,0,2013-08-08 05:09:00
12:29 AM,53.6,53.6,100,30.04,10.0,Calm,Calm,-,N/A,,Clear,0,2013-08-08 05:29:00
12:49 AM,53.6,51.8,94,30.04,10.0,Calm,Calm,-,N/A,,Clear,0,2013-08-08 05:49:00
1:09 AM,53.6,53.6,100,30.04,10.0,Calm,Calm,-,N/A,,Clear,0,2013-08-08 06:09:00
1:29 AM,53.6,53.6,100,30.04,10.0,Calm,Calm,-,N/A,,Clear,0,2013-08-08 06:29:00
1:49 AM,53.6,53.6,100,30.04,10.0,Calm,Calm,-,N/A,,Clear,0,2013-08-08 06:49:00
2:09 AM,53.6,53.6,100,30.04,10.0,Calm,Calm,-,N/A,,Clear,0,2013-08-08 07:09:00
2:28 AM,53.6,51.8,94,30.04,10.0,Calm,Calm,-,N/A,,Clear,0,2013-08-08 07:28:00
2:49 AM,53.6,51.8,94,30.04,10.0,Calm,Calm,-,N/A,,Clear,0,2013-08-08 07:49:00
3:09 AM,51.8,51.8,100,30.03,10.0,Calm,Calm,-,N/A,,Clear,0,2013-08-08 08:09:00
3:28 AM,51.8,51.8,100,30.03,10.0,Calm,Calm,-,N/A,,Clear,0,2013-08-08 08:28:00
3:49 AM,51.8,51.8,100,30.03,10.0,Calm,Calm,-,N/A,,Clear,0,2013-08-08 08:49:00
4:09 AM,51.8,51.8,100,30.03,10.0,Calm,Calm,-,N/A,,Clear,0,2013-08-08 09:09:00
4:29 AM,51.8,50.0,94,30.02,7.0,Calm,Calm,-,N/A,,Clear,0,2013-08-08 09:29:00
4:49 AM,51.8,51.8,100,30.02,10.0,Calm,Calm,-,N/A,,Clear,0,2013-08-08 09:49:00
5:09 AM,50.0,50.0,100,30.01,10.0,Calm,Calm,-,N/A,,Clear,0,2013-08-08 10:09:00
5:29 AM,51.8,51.8,100,30.01,10.0,Calm,Calm,-,N/A,,Clear,0,2013-08-08 10:29:00
5:49 AM,50.0,50.0,100,30.00,7.0,Calm,Calm,-,N/A,,Clear,0,2013-08-08 10:49:00
6:09 AM,50.0,48.2,94,30.01,7.0,Calm,Calm,-,N/A,,Clear,0,2013-08-08 11:09:00
6:29 AM,50.0,50.0,100,30.01,7.0,Calm,Calm,-,N/A,,Clear,0,2013-08-08 11:29:00
6:49 AM,51.8,51.8,100,30.02,10.0,Calm,Calm,-,N/A,,Clear,0,2013-08-08 11:49:00
7:08 AM,51.8,51.8,100,30.02,10.0,Calm,Calm,-,N/A,,Clear,0,2013-08-08 12:08:00
7:29 AM,55.4,55.4,100,30.04,10.0,Calm,Calm,-,N/A,,Clear,0,2013-08-08 12:29:00
7:49 AM,57.2,57.2,100,30.04,10.0,Calm,Calm,-,N/A,,Scattered Clouds,0,2013-08-08 12:49:00
8:09 AM,59.0,57.2,94,30.04,10.0,Calm,Calm,-,N/A,,Scattered Clouds,0,2013-08-08 13:09:00
8:29 AM,62.6,57.2,82,30.06,10.0,Calm,Calm,-,N/A,,Mostly Cloudy,0,2013-08-08 13:29:00
8:49 AM,62.6,55.4,77,30.06,10.0,Calm,Calm,-,N/A,,Scattered Clouds,0,2013-08-08 13:49:00
9:09 AM,62.6,55.4,77,30.06,10.0,Calm,Calm,-,N/A,,Scattered Clouds,0,2013-08-08 14:09:00
9:29 AM,64.4,55.4,73,30.06,10.0,SSW,3.5,-,N/A,,Scattered Clouds,200,2013-08-08 14:29:00
9:48 AM,64.4,55.4,73,30.06,10.0,Calm,Calm,-,N/A,,Clear,0,2013-08-08 14:48:00
10:09 AM,66.2,55.4,68,30.06,10.0,South,4.6,-,N/A,,Clear,190,2013-08-08 15:09:00
10:29 AM,64.4,55.4,73,30.05,10.0,SSW,3.5,-,N/A,Rain,Light Rain,200,2013-08-08 15:29:00
10:49 AM,64.4,57.2,77,30.05,10.0,Calm,Calm,-,N/A,,Clear,0,2013-08-08 15:49:00
11:09 AM,66.2,55.4,68,30.05,10.0,SSW,3.5,-,N/A,,Clear,200,2013-08-08 16:09:00
11:29 AM,68.0,55.4,64,30.06,10.0,Calm,Calm,-,N/A,,Clear,0,2013-08-08 16:29:00
11:49 AM,69.8,57.2,64,30.05,10.0,SW,3.5,-,N/A,,Clear,220,2013-08-08 16:49:00
12:09 PM,69.8,57.2,64,30.05,10.0,WSW,3.5,-,N/A,,Clear,250,2013-08-08 17:09:00
12:28 PM,68.0,57.2,68,30.05,10.0,West,5.8,-,N/A,,Clear,270,2013-08-08 17:28:00
12:49 PM,71.6,57.2,60,30.05,10.0,WSW,4.6,-,N/A,,Clear,240,2013-08-08 17:49:00
1:09 PM,71.6,57.2,60,30.05,10.0,West,3.5,-,N/A,,Scattered Clouds,260,2013-08-08 18:09:00
1:28 PM,71.6,57.2,60,30.05,10.0,West,5.8,-,N/A,,Scattered Clouds,270,2013-08-08 18:28:00
1:49 PM,71.6,55.4,57,30.04,10.0,NW,3.5,-,N/A,,Scattered Clouds,310,2013-08-08 18:49:00
2:09 PM,71.6,55.4,57,30.04,10.0,WSW,6.9,-,N/A,,Scattered Clouds,250,2013-08-08 19:09:00
2:28 PM,71.6,57.2,60,30.04,10.0,West,4.6,-,N/A,,Mostly Cloudy,260,2013-08-08 19:28:00
2:49 PM,71.6,55.4,57,30.04,10.0,WSW,4.6,-,N/A,,Scattered Clouds,240,2013-08-08 19:49:00
3:09 PM,71.6,55.4,57,30.04,10.0,West,4.6,-,N/A,,Mostly Cloudy,260,2013-08-08 20:09:00
3:29 PM,69.8,57.2,64,30.03,10.0,WSW,3.5,-,N/A,,Mostly Cloudy,250,2013-08-08 20:29:00
3:49 PM,71.6,55.4,57,30.02,10.0,Calm,Calm,-,N/A,,Scattered Clouds,0,2013-08-08 20:49:00
4:09 PM,71.6,55.4,57,30.02,10.0,Calm,Calm,-,N/A,,Scattered Clouds,0,2013-08-08 21:09:00
4:29 PM,69.8,55.4,60,30.02,10.0,Calm,Calm,-,N/A,,Mostly Cloudy,0,2013-08-08 21:29:00
4:49 PM,69.8,55.4,60,30.02,10.0,SW,3.5,-,N/A,,Mostly Cloudy,230,2013-08-08 21:49:00
5:09 PM,69.8,57.2,64,30.02,10.0,WSW,3.5,-,N/A,,Mostly Cloudy,240,2013-08-08 22:09:00
5:29 PM,66.2,57.2,73,30.02,10.0,WSW,4.6,-,N/A,,Overcast,250,2013-08-08 22:29:00
5:49 PM,62.6,60.8,94,30.02,5.0,Calm,Calm,-,N/A,Rain,Light Rain,0,2013-08-08 22:49:00
6:08 PM,62.6,60.8,94,30.02,10.0,WSW,3.5,-,N/A,,Overcast,240,2013-08-08 23:08:00
6:29 PM,64.4,60.8,88,30.02,10.0,Calm,Calm,-,N/A,,Overcast,0,2013-08-08 23:29:00
6:49 PM,64.4,60.8,88,30.01,10.0,Calm,Calm,-,N/A,,Overcast,0,2013-08-08 23:49:00
7:08 PM,64.4,60.8,88,30.01,10.0,Calm,Calm,-,N/A,,Overcast,0,2013-08-09 00:08:00
7:29 PM,64.4,60.8,88,30.01,10.0,Calm,Calm,-,N/A,,Overcast,0,2013-08-09 00:29:00
7:49 PM,64.4,60.8,88,30.00,10.0,Calm,Calm,-,N/A,,Overcast,0,2013-08-09 00:49:00
8:09 PM,64.4,60.8,88,30.01,10.0,Calm,Calm,-,N/A,,Overcast,0,2013-08-09 01:09:00
8:29 PM,62.6,60.8,94,30.01,10.0,Calm,Calm,-,N/A,,Scattered Clouds,0,2013-08-09 01:29:00
8:49 PM,62.6,60.8,94,30.01,10.0,Calm,Calm,-,N/A,,Scattered Clouds,0,2013-08-09 01:49:00
9:09 PM,62.6,60.8,94,30.01,10.0,Calm,Calm,-,N/A,,Scattered Clouds,0,2013-08-09 02:09:00
9:29 PM,60.8,59.0,94,30.01,10.0,Calm,Calm,-,N/A,,Clear,0,2013-08-09 02:29:00
9:48 PM,60.8,59.0,94,30.01,10.0,Calm,Calm,-,N/A,,Clear,0,2013-08-09 02:48:00
10:09 PM,57.2,57.2,100,30.01,10.0,Calm,Calm,-,N/A,,Clear,0,2013-08-09 03:09:00
10:29 PM,59.0,57.2,94,30.01,10.0,Calm,Calm,-,N/A,,Clear,0,2013-08-09 03:29:00
10:49 PM,57.2,57.2,100,30.01,10.0,Calm,Calm,-,N/A,,Clear,0,2013-08-09 03:49:00
11:09 PM,57.2,57.2,100,30.01,10.0,Calm,Calm,-,N/A,,Clear,0,2013-08-09 04:09:00
11:29 PM,59.0,57.2,94,30.01,10.0,Calm,Calm,-,N/A,,Clear,0,2013-08-09 04:29:00
11:48 PM,57.2,57.2,100,30.02,7.0,Calm,Calm,-,N/A,,Clear,0,2013-08-09 04:48:00